METAR Data
IDs: Format: Raw Decoded Include TAF

Data at: 0749 UTC 23 Feb 2019

KBBD 230735Z AUTO 16008KT 6SM BR BKN004 BKN013 OVC019 13/13 A2977 RMK AO2
KBBD 230715Z AUTO 17008KT 4SM BR OVC003 13/13 A2977 RMK AO2
KBBD 230655Z AUTO 16007KT 2 1/2SM BR OVC003 13/12 A2978 RMK AO2
KBBD 230635Z AUTO 15006G12KT 2 1/2SM BR OVC003 13/12 A2978 RMK AO2
KBBD 230615Z AUTO 14009KT 3SM BR OVC003 13/12 A2978 RMK AO2
KBBD 230555Z AUTO 15011G20KT 5SM BR OVC004 13/12 A2978 RMK AO2
KBBD 230535Z AUTO 14011G19KT 6SM BR BKN004 OVC007 13/12 A2978 RMK AO2
KBBD 230515Z AUTO 14012KT 3SM BR OVC003 12/12 A2978 RMK AO2
KBBD 230455Z AUTO 14010G16KT 1 3/4SM BR OVC003 12/12 A2979 RMK AO2
KBBD 230435Z AUTO 13009G16KT 3SM BR OVC003 12/12 A2979 RMK AO2
KBBD 230415Z AUTO 13009G15KT 4SM BR OVC003 12/12 A2980 RMK AO2
KBBD 230355Z AUTO 14008G13KT 3SM BR OVC003 12/12 A2980 RMK AO2
KBBD 230335Z AUTO 14008G15KT 5SM BR OVC003 12/11 A2981 RMK AO2
KBBD 230315Z AUTO 13008KT 6SM BR SCT004 11/11 A2981 RMK AO2
KBBD 230255Z AUTO 13007KT 8SM CLR 11/11 A2982 RMK AO2
KBBD 230235Z AUTO 13005KT 8SM CLR 11/11 A2983 RMK AO2
KBBD 230215Z AUTO 12005KT 10SM CLR 12/11 A2984 RMK AO2
KBBD 230155Z AUTO 11007KT 10SM CLR 12/11 A2983 RMK AO2
KBBD 230135Z AUTO 10008KT 10SM CLR 12/11 A2982 RMK AO2
KBBD 230115Z AUTO 10007KT 10SM CLR 12/11 A2983 RMK AO2
KBBD 230055Z AUTO 10007KT 10SM CLR 13/11 A2982 RMK AO2
KBBD 230035Z AUTO 09006KT 10SM CLR 14/12 A2982 RMK AO2
KBBD 230015Z AUTO 11010KT 10SM CLR 15/12 A2982 RMK AO2
KBBD 222355Z AUTO 10010KT 10SM CLR 16/12 A2981 RMK AO2
KBBD 222335Z AUTO 10009G15KT 10SM CLR 17/13 A2981 RMK AO2
KBBD 222315Z AUTO 10009KT 10SM CLR 18/13 A2981 RMK AO2
KBBD 222255Z AUTO 11007KT 10SM CLR 18/13 A2981 RMK AO2
KBBD 222235Z AUTO 12010KT 10SM CLR 18/13 A2982 RMK AO2
KBBD 222215Z AUTO 14008G13KT 10SM FEW018 18/12 A2983 RMK AO2
KBBD 222155Z AUTO 10008KT 060V130 10SM BKN016 17/12 A2984 RMK AO2
KBBD 222135Z AUTO 10007KT 10SM BKN014 16/12 A2984 RMK AO2
KBBD 222115Z AUTO 10006KT 10SM SCT013 15/12 A2985 RMK AO2
KBBD 222055Z AUTO 09007KT 10SM FEW008 BKN013 14/12 A2986 RMK AO2
KBBD 222035Z AUTO 06005KT 10SM BKN008 BKN013 14/11 A2987 RMK AO2
KBBD 222015Z AUTO 12003KT 9SM BKN006 OVC013 13/12 A2988 RMK AO2
KBBD 221955Z AUTO 09004KT 5SM BR OVC003 12/12 A2989 RMK AO2
KBBD 221935Z AUTO 10005KT 1/2SM FG OVC003 11/11 A2990 RMK AO2
KBBD 221915Z AUTO 13004KT 3/4SM BR OVC003 11/11 A2992 RMK AO2
KBBD 221855Z AUTO 12005KT 1/4SM FG OVC002 11/10 A2992 RMK AO2
KBBD 221835Z AUTO 11005KT 1/4SM FG OVC002 10/10 A2993 RMK AO2
KBBD 221815Z AUTO 10006KT M1/4SM FG OVC002 10/10 A2994 RMK AO2
KBBD 221755Z AUTO 10005KT M1/4SM FG OVC002 10/10 A2995 RMK AO2
KBBD 221735Z AUTO 10005KT M1/4SM FG OVC002 10/10 A2996 RMK AO2
KBBD 221715Z AUTO VRB04KT M1/4SM FG OVC002 10/10 A2997 RMK AO2
KBBD 221655Z AUTO 08004KT M1/4SM FG OVC002 10/09 A2997 RMK AO2
KBBD 221635Z AUTO 10007KT 1/4SM FG OVC002 10/10 A2996 RMK AO2
KBBD 221615Z AUTO 11005KT 1/4SM FG OVC002 10/09 A2996 RMK AO2
KBBD 221555Z AUTO 10004KT M1/4SM FG OVC002 10/09 A2996 RMK AO2
KBBD 221535Z AUTO 13004KT 1/4SM FG OVC002 10/09 A2996 RMK AO2
KBBD 221515Z AUTO 00000KT 1/4SM FG OVC002 09/09 A2997 RMK AO2
KBBD 221455Z AUTO 07004KT 1/4SM FG OVC002 09/09 A2996 RMK AO2
KBBD 221435Z AUTO 00000KT M1/4SM FG OVC002 09/09 A2995 RMK AO2
KBBD 221415Z AUTO 08005KT M1/4SM FG OVC002 09/08 A2994 RMK AO2
KBBD 221355Z AUTO 09004KT M1/4SM FG OVC002 09/08 A2994 RMK AO2
KBBD 221335Z AUTO 00000KT M1/4SM FG OVC002 08/08 A2994 RMK AO2
KBBD 221315Z AUTO 00000KT M1/4SM FG OVC002 09/08 A2994 RMK AO2
KBBD 221255Z AUTO 14003KT 1/4SM FG OVC002 09/08 A2993 RMK AO2
KBBD 221235Z AUTO 00000KT 1/4SM FG OVC002 09/08 A2993 RMK AO2
KBBD 221215Z AUTO 00000KT 1/4SM FG OVC002 09/08 A2993 RMK AO2
KBBD 221155Z AUTO 00000KT 1SM BR OVC002 08/08 A2992 RMK AO2
KBBD 221135Z AUTO 00000KT 3SM BR OVC003 08/08 A2992 RMK AO2
KBBD 221115Z AUTO 00000KT 4SM BR OVC003 09/08 A2992 RMK AO2
KBBD 221055Z AUTO 20004KT 5SM BR OVC003 08/08 A2992 RMK AO2
KBBD 221035Z AUTO 20005KT 5SM BR OVC004 08/08 A2992 RMK AO2
KBBD 221015Z AUTO 21006KT 6SM BR OVC004 08/08 A2991 RMK AO2
KBBD 220955Z AUTO 19005KT 7SM -DZ OVC003 08/08 A2990 RMK AO2 P0001
KBBD 220935Z AUTO 21004KT 7SM -DZ OVC003 08/08 A2989 RMK AO2
KBBD 220915Z AUTO 00000KT 5SM BR OVC003 08/08 A2987 RMK AO2
KBBD 220855Z AUTO 00000KT 7SM OVC003 08/08 A2988 RMK AO2
KBBD 220835Z AUTO 00000KT 10SM OVC003 08/08 A2988 RMK AO2
KBBD 220815Z AUTO 12006KT 10SM OVC004 08/07 A2988 RMK AO2
KBBD 220755Z AUTO 09005KT 10SM OVC004 08/07 A2988 RMK AO2
KBBD 220735Z AUTO VRB06KT 10SM OVC006 08/07 A2990 RMK AO2
KBBD 220715Z AUTO VRB03G14KT 10SM OVC007 08/06 A2989 RMK AO2
KBBD 220655Z AUTO 10010KT 10SM BKN010 BKN015 OVC110 08/06 A2989 RMK AO2
KBBD 220635Z AUTO 11004KT 10SM SCT011 SCT015 BKN110 08/06 A2993 RMK AO2
KBBD 220615Z AUTO 10006KT 10SM OVC011 08/06 A2992 RMK AO2
KBBD 220555Z AUTO 11007KT 10SM OVC012 09/05 A2992 RMK AO2
KBBD 220535Z AUTO 11005KT 10SM OVC012 09/05 A2992 RMK AO2
KBBD 220515Z AUTO 00000KT 10SM OVC013 09/05 A2994 RMK AO2
KBBD 220455Z AUTO 12004KT 10SM OVC013 09/05 A2994 RMK AO2
KBBD 220435Z AUTO 12008KT 10SM OVC013 09/05 A2994 RMK AO2
KBBD 220415Z AUTO 12008KT 10SM OVC013 09/05 A2992 RMK AO2
KBBD 220355Z AUTO 13010KT 10SM OVC013 09/05 A2992 RMK AO2
KBBD 220335Z AUTO 12009KT 10SM OVC012 09/05 A2992 RMK AO2
KBBD 220315Z AUTO 10006KT 10SM OVC012 08/05 A2991 RMK AO2
KBBD 220255Z AUTO 09006KT 10SM SCT013 OVC026 08/04 A2990 RMK AO2
KBBD 220235Z AUTO 11005KT 10SM BKN028 OVC039 09/04 A2990 RMK AO2
KBBD 220215Z AUTO 12007KT 10SM FEW027 BKN031 OVC041 09/04 A2990 RMK AO2
KBBD 220155Z AUTO 11006KT 10SM SCT033 BKN041 09/04 A2989 RMK AO2
KBBD 220135Z AUTO 11005KT 10SM BKN039 BKN047 09/03 A2989 RMK AO2
KBBD 220115Z AUTO 12006KT 10SM FEW041 FEW047 10/03 A2989 RMK AO2
KBBD 220055Z AUTO 12008KT 10SM CLR 10/03 A2988 RMK AO2
KBBD 220035Z AUTO 12004KT 10SM CLR 11/03 A2989 RMK AO2
KBBD 220015Z AUTO 00000KT 10SM CLR 11/03 A2990 RMK AO2
KBBD 212355Z AUTO 12007KT 10SM CLR 11/03 A2986 RMK AO2
KBBD 212335Z AUTO 12008KT 10SM CLR 12/03 A2986 RMK AO2
KBBD 212315Z AUTO VRB06G12KT 10SM CLR 12/03 A2986 RMK AO2
KBBD 212255Z AUTO 12009KT 10SM CLR 12/03 A2985 RMK AO2
KBBD 212235Z AUTO 11007G14KT 10SM CLR 12/03 A2984 RMK AO2
KBBD 212215Z AUTO 11010KT 10SM CLR 12/02 A2985 RMK AO2
KBBD 212155Z AUTO 11012KT 10SM CLR 12/01 A2984 RMK AO2
KBBD 212135Z AUTO 12008KT 10SM CLR 12/00 A2985 RMK AO2
KBBD 212115Z AUTO 12011KT 10SM CLR 12/M00 A2985 RMK AO2
KBBD 212055Z AUTO 12011KT 10SM CLR 12/00 A2987 RMK AO2
KBBD 212035Z AUTO 13008KT 10SM CLR 11/01 A2988 RMK AO2
KBBD 212015Z AUTO 12006G13KT 10SM CLR 11/02 A2989 RMK AO2
KBBD 211955Z AUTO 14008G14KT 10SM CLR 11/02 A2989 RMK AO2